Startpagina
METAR-TAF:

METAR-TAF

Vliegvelden :

Luchthaven Port Moresby

Port Moresby, Papoea-Nieuw-Guinea

breedte: 09-26S, lengte: 147-13E, hoogte: 38 m

Actueel weer

Dit bericht is 32 minuten geleden gemaakt, om 13:00 UTC
Wind 10 kt uit het zuidzuidoosten
Temperatuur 26°C
Vochtigheid 74%
Druk 1010 hPa
Zicht 10 km of meer
Verspreide wolken op 6000 ft

METAR: AYPY 161300Z 15010KT 9999 SCT060 26/21 Q1010

Tijdstip: 23:32 (13:32 UTC)

Verwachting

Dit bericht is 3 uur en het 31 minuten geleden gemaakt, om 10:01 UTC
Verwachting geldig van 16 om 12 UTC tot 17 om 12 UTC
Wind 8 kt uit het zuidzuidoosten
Zicht 10 km of meer
Gebroken wolken op 3500 ft
Van 16 om 1800 UTC
Wind kt uit het noorden
Zicht 10 km of meer
Gebroken wolken op 3500 ft

TAF: AYPY 161001Z 1612/1712 16008KT 9999 BKN035 FM161800 00000KT 9999 BKN035

Waarnemingen en weersverwachtingen van meer dan 4000 vliegvelden (METAR en TAF).

De beschikbare stations zijn de gele en rode punten op de kaart.

Ga met uw muis naar het station om de naam te zien.

Klik dan om waarnemingen en weersverwachtingen te zien.

kaart wijzigen: klik op de groene knoppen met een zwart kruis om in te zoomen, op de groene knop met een streepje om uit te zoomen of op de groene pijlen voor aangrenzende kaarten.


METAR-TAF: